createdAt,value
2019-03-23T00:00:07.860Z,7.60
2019-03-23T00:02:39.697Z,7.60
2019-03-23T00:05:10.359Z,7.60
2019-03-23T00:07:40.693Z,7.60
2019-03-23T00:10:11.180Z,7.60
2019-03-23T00:12:43.033Z,7.60
2019-03-23T00:15:15.199Z,7.60
2019-03-23T00:17:45.521Z,7.50
2019-03-23T00:20:15.808Z,7.50
2019-03-23T00:22:47.614Z,7.50
2019-03-23T00:25:17.958Z,7.50
2019-03-23T00:27:48.363Z,7.50
2019-03-23T00:30:18.820Z,7.40
2019-03-23T00:32:49.196Z,7.40
2019-03-23T00:35:20.796Z,7.40
2019-03-23T00:37:51.218Z,7.40
2019-03-23T00:40:21.653Z,7.30
2019-03-23T00:42:52.410Z,7.40
2019-03-23T00:45:22.656Z,7.30
2019-03-23T00:47:52.978Z,7.30
2019-03-23T00:50:23.203Z,7.30
2019-03-23T00:52:53.541Z,7.20
2019-03-23T00:55:23.800Z,7.30
2019-03-23T00:57:54.106Z,7.20
2019-03-23T01:00:24.390Z,7.20
2019-03-23T01:02:54.736Z,7.20
2019-03-23T01:05:25.019Z,7.20
2019-03-23T01:07:55.320Z,7.20
2019-03-23T01:10:25.580Z,7.10
2019-03-23T01:12:55.824Z,7.10
2019-03-23T01:15:27.014Z,7.10
2019-03-23T01:17:57.366Z,7.10
2019-03-23T01:20:27.647Z,7.10
2019-03-23T01:22:58.299Z,7.10
2019-03-23T01:25:28.566Z,7.10
2019-03-23T01:27:58.944Z,7.00
2019-03-23T01:30:29.228Z,7.00
2019-03-23T01:32:59.482Z,7.00
2019-03-23T01:35:30.321Z,7.00
2019-03-23T01:38:00.735Z,7.00
2019-03-23T01:40:31.090Z,6.90
2019-03-23T01:43:01.364Z,6.90
2019-03-23T01:45:32.582Z,6.90
2019-03-23T01:48:02.917Z,6.90
2019-03-23T01:50:33.231Z,6.80
2019-03-23T01:53:03.453Z,6.80
2019-03-23T01:55:33.677Z,6.80
2019-03-23T01:58:03.990Z,6.80
2019-03-23T02:00:34.301Z,6.70
2019-03-23T02:03:04.913Z,6.70
2019-03-23T02:05:35.229Z,6.70
2019-03-23T02:08:05.519Z,6.70
2019-03-23T02:10:35.787Z,6.60
2019-03-23T02:13:06.099Z,6.60
2019-03-23T02:15:37.541Z,6.60
2019-03-23T02:18:07.919Z,6.60
2019-03-23T02:20:38.185Z,6.60
2019-03-23T02:23:08.494Z,6.60
2019-03-23T02:25:38.769Z,6.60
2019-03-23T02:28:09.099Z,6.50
2019-03-23T02:30:39.392Z,6.50
2019-03-23T02:33:09.697Z,6.50
2019-03-23T02:35:39.912Z,6.50
2019-03-23T02:38:10.245Z,6.40
2019-03-23T02:40:41.444Z,6.50
2019-03-23T02:43:13.213Z,6.50
2019-03-23T02:45:43.486Z,6.40
2019-03-23T02:48:13.830Z,6.40
2019-03-23T02:50:44.231Z,6.40
2019-03-23T02:53:14.488Z,6.30
2019-03-23T02:55:44.766Z,6.30
2019-03-23T02:58:15.078Z,6.20
2019-03-23T03:00:45.373Z,6.30
2019-03-23T03:03:15.673Z,6.20
2019-03-23T03:05:45.906Z,6.20
2019-03-23T03:08:16.149Z,6.20
2019-03-23T03:10:46.425Z,6.20
2019-03-23T03:13:16.662Z,6.20
2019-03-23T03:15:47.078Z,6.20
2019-03-23T03:18:17.398Z,6.20
2019-03-23T03:20:47.682Z,6.20
2019-03-23T03:23:17.978Z,6.20
2019-03-23T03:25:48.263Z,6.20
2019-03-23T03:28:18.500Z,6.20
2019-03-23T03:30:48.763Z,6.20
2019-03-23T03:33:19.076Z,6.20
2019-03-23T03:35:49.355Z,6.10
2019-03-23T03:38:19.604Z,6.10
2019-03-23T03:40:49.901Z,6.10
2019-03-23T03:43:20.220Z,6.10
2019-03-23T03:45:50.516Z,6.10
2019-03-23T03:48:20.811Z,6.10
2019-03-23T03:50:51.178Z,6.10
2019-03-23T03:53:21.849Z,6.10
2019-03-23T03:55:52.062Z,6.10
2019-03-23T03:58:22.386Z,6.10
2019-03-23T04:00:52.673Z,6.10
2019-03-23T04:03:22.907Z,6.10
2019-03-23T04:05:53.177Z,6.00
2019-03-23T04:08:23.475Z,6.10
2019-03-23T04:10:53.750Z,6.00
2019-03-23T04:13:23.993Z,6.00
2019-03-23T04:15:54.358Z,6.00
2019-03-23T04:18:24.702Z,6.00
2019-03-23T04:20:54.987Z,6.00
2019-03-23T04:23:25.306Z,6.00
2019-03-23T04:25:55.524Z,6.00
2019-03-23T04:28:26.162Z,6.00
2019-03-23T04:30:56.499Z,6.00
2019-03-23T04:33:26.885Z,6.00
2019-03-23T04:35:57.151Z,6.00
2019-03-23T04:38:27.439Z,6.00
2019-03-23T04:40:57.664Z,6.00
2019-03-23T04:43:27.995Z,6.00
2019-03-23T04:45:58.267Z,5.90
2019-03-23T04:48:28.573Z,6.00
2019-03-23T04:50:58.848Z,6.00
2019-03-23T04:53:29.223Z,6.00
2019-03-23T04:55:59.507Z,5.90
2019-03-23T04:58:30.868Z,5.90
2019-03-23T05:01:01.140Z,5.90
2019-03-23T05:03:37.784Z,5.90
2019-03-23T05:06:08.008Z,5.90
2019-03-23T05:08:38.356Z,5.90
2019-03-23T05:11:08.588Z,5.90
2019-03-23T05:13:38.877Z,5.90
2019-03-23T05:16:10.760Z,6.00
2019-03-23T05:18:41.245Z,6.00
2019-03-23T05:21:11.538Z,6.00
2019-03-23T05:23:42.408Z,6.00
2019-03-23T05:26:12.699Z,6.00
2019-03-23T05:28:43.048Z,6.00
2019-03-23T05:31:13.319Z,6.10
2019-03-23T05:33:43.706Z,6.10
2019-03-23T05:36:15.334Z,6.10
2019-03-23T05:38:45.852Z,6.10
2019-03-23T05:41:16.131Z,6.20
2019-03-23T05:43:47.556Z,6.20
2019-03-23T05:46:17.819Z,6.30
2019-03-23T05:48:48.187Z,6.30
2019-03-23T05:51:18.469Z,6.40
2019-03-23T05:53:49.923Z,6.40
2019-03-23T05:56:20.152Z,6.40
2019-03-23T05:58:50.587Z,6.50
2019-03-23T06:01:20.868Z,6.50
2019-03-23T06:03:51.235Z,6.60
2019-03-23T06:06:21.509Z,6.60
2019-03-23T06:08:55.287Z,6.70
2019-03-23T06:11:24.213Z,6.70
2019-03-23T06:13:54.850Z,6.80
2019-03-23T06:16:25.113Z,6.80
2019-03-23T06:18:55.488Z,6.90
2019-03-23T06:21:26.169Z,6.90
2019-03-23T06:23:56.560Z,7.00
2019-03-23T06:26:26.874Z,7.00
2019-03-23T06:28:57.658Z,7.10
2019-03-23T06:31:27.888Z,7.20
2019-03-23T06:33:58.087Z,7.20
2019-03-23T06:36:28.332Z,7.30
2019-03-23T06:39:05.497Z,7.30
2019-03-23T06:41:30.487Z,7.40
2019-03-23T06:44:00.688Z,7.50
2019-03-23T06:46:31.006Z,7.50
2019-03-23T06:49:01.284Z,7.60
2019-03-23T06:51:35.292Z,7.70
2019-03-23T06:54:05.571Z,7.70
2019-03-23T06:56:35.865Z,7.80
2019-03-23T06:59:06.137Z,7.90
2019-03-23T07:01:36.434Z,8.00
2019-03-23T07:04:08.035Z,8.00
2019-03-23T07:06:38.380Z,8.10
2019-03-23T07:09:16.164Z,8.20
2019-03-23T07:11:41.871Z,8.20
2019-03-23T07:14:12.187Z,8.30
2019-03-23T07:16:43.439Z,8.30
2019-03-23T07:19:13.707Z,8.50
2019-03-23T07:21:43.968Z,8.50
2019-03-23T07:24:14.722Z,8.70
2019-03-23T07:26:45.056Z,8.80
2019-03-23T07:29:15.359Z,8.80
2019-03-23T07:31:46.296Z,8.90
2019-03-23T07:34:16.516Z,9.00
2019-03-23T07:36:46.836Z,9.10
2019-03-23T07:39:26.942Z,9.20
2019-03-23T07:41:49.954Z,9.30
2019-03-23T07:44:20.229Z,9.40
2019-03-23T07:46:51.556Z,9.50
2019-03-23T07:49:21.837Z,9.60
2019-03-23T07:51:52.176Z,9.70
2019-03-23T07:54:22.392Z,9.80
2019-03-23T07:56:52.614Z,9.90
2019-03-23T07:59:22.879Z,10.00
2019-03-23T08:01:53.196Z,10.10
2019-03-23T08:04:23.489Z,10.20
2019-03-23T08:06:53.814Z,10.30
2019-03-23T08:09:24.088Z,10.40
2019-03-23T08:11:54.398Z,10.50
2019-03-23T08:14:24.684Z,10.60
2019-03-23T08:16:54.959Z,10.70
2019-03-23T08:19:25.270Z,10.80
2019-03-23T08:21:55.561Z,10.90
2019-03-23T08:24:25.762Z,11.00
2019-03-23T08:26:56.071Z,11.10
2019-03-23T08:29:26.347Z,11.20
2019-03-23T08:31:56.605Z,11.40
2019-03-23T08:34:26.878Z,11.40
2019-03-23T08:36:57.124Z,11.60
2019-03-23T08:39:27.406Z,11.70
2019-03-23T08:41:57.659Z,11.70
2019-03-23T08:44:27.939Z,11.90
2019-03-23T08:46:58.295Z,11.90
2019-03-23T08:49:29.588Z,12.00
2019-03-23T08:51:59.904Z,12.10
2019-03-23T08:54:31.213Z,12.20
2019-03-23T08:57:02.547Z,12.30
2019-03-23T08:59:32.789Z,12.40
2019-03-23T09:02:03.107Z,12.50
2019-03-23T09:04:33.375Z,12.60
2019-03-23T09:07:03.808Z,12.60
2019-03-23T09:09:34.124Z,12.70
2019-03-23T09:12:04.471Z,12.90
2019-03-23T09:14:43.257Z,12.90
2019-03-23T09:17:13.716Z,13.00
2019-03-23T09:19:44.539Z,13.10
2019-03-23T09:22:14.850Z,13.20
2019-03-23T09:24:45.146Z,13.30
2019-03-23T09:27:15.453Z,13.40
2019-03-23T09:29:45.785Z,13.50
2019-03-23T09:32:16.097Z,13.60
2019-03-23T09:34:46.372Z,13.70
2019-03-23T09:37:16.682Z,13.80
2019-03-23T09:39:47.039Z,13.90
2019-03-23T09:42:17.303Z,13.90
2019-03-23T09:44:49.061Z,14.00
2019-03-23T09:47:19.407Z,14.10
2019-03-23T09:49:49.603Z,14.20
2019-03-23T09:52:19.971Z,14.30
2019-03-23T09:54:50.234Z,14.40
2019-03-23T09:57:20.618Z,14.50
2019-03-23T09:59:50.821Z,14.70
2019-03-23T10:02:21.167Z,14.80
2019-03-23T10:04:53.285Z,14.90
2019-03-23T10:07:23.598Z,15.00
2019-03-23T10:09:54.216Z,15.10
2019-03-23T10:12:24.500Z,15.20
2019-03-23T10:14:56.596Z,15.30
2019-03-23T10:17:26.939Z,15.40
2019-03-23T10:19:57.126Z,15.50
2019-03-23T10:22:27.615Z,15.60
2019-03-23T10:24:57.850Z,15.70
2019-03-23T10:27:28.208Z,15.80
2019-03-23T10:29:58.489Z,15.80
2019-03-23T10:32:28.912Z,15.90
2019-03-23T10:34:59.183Z,16.00
2019-03-23T10:37:29.989Z,16.10
2019-03-23T10:40:00.320Z,16.20
2019-03-23T10:42:30.783Z,16.20
2019-03-23T10:45:01.127Z,16.30
2019-03-23T10:47:31.553Z,16.50
2019-03-23T10:50:02.870Z,16.60
2019-03-23T10:52:33.328Z,16.70
2019-03-23T10:55:04.795Z,16.80
2019-03-23T10:57:35.083Z,16.80
2019-03-23T11:00:11.394Z,16.90
2019-03-23T11:02:41.884Z,17.00
2019-03-23T11:05:13.348Z,17.10
2019-03-23T11:07:43.634Z,17.20
2019-03-23T11:10:14.494Z,17.20
2019-03-23T11:12:44.864Z,17.20
2019-03-23T11:15:16.084Z,17.30
2019-03-23T11:17:46.341Z,17.40
2019-03-23T11:20:17.078Z,17.50
2019-03-23T11:22:47.371Z,17.50
2019-03-23T11:25:17.869Z,17.60
2019-03-23T11:27:48.272Z,17.60
2019-03-23T11:30:18.543Z,17.70
2019-03-23T11:32:48.921Z,17.70
2019-03-23T11:35:19.359Z,17.80
2019-03-23T11:37:49.857Z,17.80
2019-03-23T11:40:20.528Z,17.80
2019-03-23T11:42:50.790Z,17.90
2019-03-23T11:45:21.075Z,18.00
2019-03-23T11:47:51.374Z,18.10
2019-03-23T11:50:21.638Z,18.10
2019-03-23T11:52:52.727Z,18.10
2019-03-23T11:55:22.963Z,18.10
2019-03-23T11:57:53.359Z,18.20
2019-03-23T12:00:23.562Z,18.20
2019-03-23T12:02:54.045Z,18.30
2019-03-23T12:05:24.308Z,18.40
2019-03-23T12:07:54.520Z,18.50
2019-03-23T12:10:24.855Z,18.60
2019-03-23T12:12:55.135Z,18.70
2019-03-23T12:15:25.403Z,18.70
2019-03-23T12:17:55.769Z,18.80
2019-03-23T12:20:26.061Z,18.80
2019-03-23T12:22:56.351Z,18.90
2019-03-23T12:25:26.554Z,18.90
2019-03-23T12:27:56.866Z,18.90
2019-03-23T12:30:28.068Z,19.00
2019-03-23T12:32:59.139Z,19.00
2019-03-23T12:35:29.415Z,19.10
2019-03-23T12:37:59.803Z,19.10
2019-03-23T12:40:30.093Z,19.10
2019-03-23T12:43:00.653Z,19.20
2019-03-23T12:45:30.847Z,19.20
2019-03-23T12:48:01.185Z,19.20
2019-03-23T12:50:31.454Z,19.20
2019-03-23T12:53:01.805Z,19.30
2019-03-23T12:55:33.293Z,19.40
2019-03-23T12:58:04.262Z,19.50
2019-03-23T13:00:34.476Z,19.50
2019-03-23T13:03:04.774Z,19.60
2019-03-23T13:05:35.040Z,19.50
2019-03-23T13:08:05.389Z,19.60
2019-03-23T13:10:35.587Z,19.60
2019-03-23T13:13:05.952Z,19.60
2019-03-23T13:15:36.290Z,19.60
2019-03-23T13:18:07.627Z,19.70
2019-03-23T13:20:37.893Z,19.70
2019-03-23T13:23:08.198Z,19.70
2019-03-23T13:25:38.476Z,19.80
2019-03-23T13:28:08.788Z,19.80
2019-03-23T13:30:39.062Z,19.90
2019-03-23T13:33:11.996Z,19.90
2019-03-23T13:35:43.367Z,19.90
2019-03-23T13:38:13.671Z,19.90
2019-03-23T13:40:43.954Z,19.90
2019-03-23T13:43:14.245Z,19.90
2019-03-23T13:45:44.577Z,19.90
2019-03-23T13:48:14.880Z,19.90
2019-03-23T13:50:45.150Z,19.90
2019-03-23T13:53:15.462Z,20.00
2019-03-23T13:55:47.484Z,20.00
2019-03-23T13:58:17.757Z,20.10
2019-03-23T14:00:48.121Z,20.20
2019-03-23T14:03:18.435Z,20.30
2019-03-23T14:05:48.711Z,20.40
2019-03-23T14:08:19.010Z,20.30
2019-03-23T14:10:50.977Z,20.30
2019-03-23T14:13:21.264Z,20.30
2019-03-23T14:15:52.539Z,20.30
2019-03-23T14:18:22.850Z,20.20
2019-03-23T14:20:53.113Z,20.20
2019-03-23T14:23:23.363Z,20.20
2019-03-23T14:25:53.643Z,20.20
2019-03-23T14:28:25.396Z,20.20
2019-03-23T14:30:55.552Z,20.10
2019-03-23T14:33:25.862Z,20.10
2019-03-23T14:35:56.172Z,20.10
2019-03-23T14:38:26.402Z,20.10
2019-03-23T14:40:56.664Z,20.20
2019-03-23T14:43:26.991Z,20.20
2019-03-23T14:45:57.276Z,20.10
2019-03-23T14:48:27.582Z,20.10
2019-03-23T14:50:58.868Z,20.10
2019-03-23T14:53:29.172Z,20.10
2019-03-23T14:55:59.354Z,20.10
2019-03-23T14:58:29.686Z,20.10
2019-03-23T15:01:00.005Z,20.10
2019-03-23T15:03:30.316Z,20.10
2019-03-23T15:06:01.541Z,20.10
2019-03-23T15:08:32.115Z,20.10
2019-03-23T15:11:02.396Z,20.20
2019-03-23T15:13:33.094Z,20.30
2019-03-23T15:16:04.241Z,20.30
2019-03-23T15:18:34.594Z,20.30
2019-03-23T15:21:05.115Z,20.40
2019-03-23T15:23:35.441Z,20.40
2019-03-23T15:26:05.719Z,20.40
2019-03-23T15:28:36.006Z,20.30
2019-03-23T15:31:06.263Z,20.30
2019-03-23T15:33:36.539Z,20.30
2019-03-23T15:36:06.828Z,20.30
2019-03-23T15:38:37.110Z,20.30
2019-03-23T15:41:07.387Z,20.30
2019-03-23T15:43:37.701Z,20.30
2019-03-23T15:46:07.995Z,20.30
2019-03-23T15:48:38.375Z,20.20
2019-03-23T15:51:08.645Z,20.20
2019-03-23T15:53:38.955Z,20.20
2019-03-23T15:56:09.223Z,20.10
2019-03-23T15:58:39.540Z,20.20
2019-03-23T16:01:09.879Z,20.10
2019-03-23T16:03:40.236Z,20.10
2019-03-23T16:06:10.622Z,20.10
2019-03-23T16:08:41.009Z,20.00
2019-03-23T16:11:11.373Z,20.00
2019-03-23T16:13:41.603Z,20.00
2019-03-23T16:16:11.953Z,20.00
2019-03-23T16:18:44.882Z,19.90
2019-03-23T16:21:15.263Z,19.90
2019-03-23T16:23:45.533Z,19.90
2019-03-23T16:26:16.384Z,19.90
2019-03-23T16:28:46.638Z,19.90
2019-03-23T16:31:16.945Z,19.90
2019-03-23T16:33:47.214Z,19.80
2019-03-23T16:36:17.534Z,19.80
2019-03-23T16:38:47.792Z,19.80
2019-03-23T16:41:18.122Z,19.90
2019-03-23T16:43:48.368Z,19.90
2019-03-23T16:46:19.061Z,20.00
2019-03-23T16:48:49.415Z,20.30
2019-03-23T16:51:19.610Z,20.60
2019-03-23T16:53:49.867Z,20.70
2019-03-23T16:56:20.146Z,20.60
2019-03-23T16:58:50.469Z,20.50
2019-03-23T17:01:20.731Z,20.30
2019-03-23T17:03:51.028Z,20.30
2019-03-23T17:06:21.708Z,20.10
2019-03-23T17:08:51.896Z,19.90
2019-03-23T17:11:22.146Z,19.60
2019-03-23T17:13:52.959Z,19.40
2019-03-23T17:16:24.642Z,19.20
2019-03-23T17:18:55.606Z,19.00
2019-03-23T17:21:25.934Z,18.80
2019-03-23T17:23:56.249Z,18.60
2019-03-23T17:26:26.607Z,18.50
2019-03-23T17:28:58.517Z,18.40
2019-03-23T17:31:28.923Z,18.20
2019-03-23T17:33:59.955Z,18.10
2019-03-23T17:36:30.293Z,17.90
2019-03-23T17:39:00.686Z,17.90
2019-03-23T17:41:32.476Z,17.70
2019-03-23T17:44:02.981Z,17.60
2019-03-23T17:46:34.296Z,17.60
2019-03-23T17:49:04.602Z,17.50
2019-03-23T17:51:34.867Z,17.40
2019-03-23T17:54:05.172Z,17.30
2019-03-23T17:56:35.537Z,17.20
2019-03-23T17:59:08.018Z,17.10
2019-03-23T18:01:38.254Z,17.00
2019-03-23T18:04:08.589Z,16.90
2019-03-23T18:06:38.868Z,16.80
2019-03-23T18:09:09.177Z,16.80
2019-03-23T18:11:39.380Z,16.70
2019-03-23T18:14:09.793Z,16.60
2019-03-23T18:16:40.298Z,16.50
2019-03-23T18:19:10.618Z,16.50
2019-03-23T18:21:40.853Z,16.40
2019-03-23T18:24:11.164Z,16.40
2019-03-23T18:26:41.480Z,16.30
2019-03-23T18:29:11.742Z,16.30
2019-03-23T18:31:42.064Z,16.20
2019-03-23T18:34:12.344Z,16.20
2019-03-23T18:36:42.726Z,16.20
2019-03-23T18:39:12.952Z,16.10
2019-03-23T18:41:43.264Z,16.10
2019-03-23T18:44:16.405Z,16.00
2019-03-23T18:46:46.350Z,16.00
2019-03-23T18:49:16.603Z,15.90
2019-03-23T18:51:46.919Z,15.90
2019-03-23T18:54:17.223Z,15.80
2019-03-23T18:56:47.568Z,15.80
2019-03-23T18:59:17.807Z,15.70
2019-03-23T19:01:48.187Z,15.70
2019-03-23T19:04:18.463Z,15.70
2019-03-23T19:06:48.824Z,15.70
2019-03-23T19:09:20.095Z,15.60
2019-03-23T19:11:50.413Z,15.60
2019-03-23T19:14:20.735Z,15.60
2019-03-23T19:16:51.063Z,15.50
2019-03-23T19:19:21.408Z,15.50
2019-03-23T19:21:51.735Z,15.50
2019-03-23T19:24:22.099Z,15.50
2019-03-23T19:26:52.379Z,15.50
2019-03-23T19:29:22.654Z,15.50
2019-03-23T19:31:52.995Z,15.50
2019-03-23T19:34:23.235Z,15.60
2019-03-23T19:36:53.556Z,15.60
2019-03-23T19:39:23.836Z,15.60
2019-03-23T19:41:54.072Z,15.60
2019-03-23T19:44:24.365Z,15.60
2019-03-23T19:46:54.688Z,15.60
2019-03-23T19:49:24.911Z,15.60
2019-03-23T19:51:55.201Z,15.50
2019-03-23T19:54:25.560Z,15.50
2019-03-23T19:56:58.403Z,15.30
2019-03-23T19:59:28.700Z,15.20
2019-03-23T20:01:59.120Z,15.00
2019-03-23T20:04:29.376Z,14.90
2019-03-23T20:06:59.724Z,14.80
2019-03-23T20:09:29.969Z,14.60
2019-03-23T20:12:00.334Z,14.50
2019-03-23T20:14:31.620Z,14.20
2019-03-23T20:17:02.000Z,14.00
2019-03-23T20:19:32.308Z,13.80
2019-03-23T20:22:02.654Z,13.60
2019-03-23T20:24:32.995Z,13.40
2019-03-23T20:27:03.318Z,13.30
2019-03-23T20:29:33.534Z,13.20
2019-03-23T20:32:03.832Z,13.10
2019-03-23T20:34:34.229Z,12.90
2019-03-23T20:37:04.490Z,12.80
2019-03-23T20:39:34.822Z,12.70
2019-03-23T20:42:05.132Z,12.50
2019-03-23T20:44:35.342Z,12.40
2019-03-23T20:47:05.629Z,12.20
2019-03-23T20:49:35.920Z,12.10
2019-03-23T20:52:07.314Z,12.00
2019-03-23T20:54:37.649Z,12.00
2019-03-23T20:57:07.925Z,11.80
2019-03-23T20:59:38.339Z,11.70
2019-03-23T21:02:08.569Z,11.60
2019-03-23T21:04:38.934Z,11.50
2019-03-23T21:07:09.435Z,11.40
2019-03-23T21:09:39.745Z,11.30
2019-03-23T21:12:10.020Z,11.30
2019-03-23T21:14:46.808Z,11.20
2019-03-23T21:17:17.087Z,11.10
2019-03-23T21:19:47.458Z,11.00
2019-03-23T21:22:17.799Z,11.00
2019-03-23T21:24:48.185Z,10.90
2019-03-23T21:27:19.492Z,10.90
2019-03-23T21:29:49.868Z,10.80
2019-03-23T21:32:20.173Z,10.70
2019-03-23T21:34:50.544Z,10.70
2019-03-23T21:37:20.858Z,10.70
2019-03-23T21:39:52.597Z,10.60
2019-03-23T21:42:22.908Z,10.60
2019-03-23T21:44:53.390Z,10.50
2019-03-23T21:47:23.690Z,10.50
2019-03-23T21:49:54.064Z,10.50
2019-03-23T21:52:24.528Z,10.50
2019-03-23T21:54:54.828Z,10.40
2019-03-23T21:57:25.100Z,10.40
2019-03-23T21:59:57.776Z,10.30
2019-03-23T22:02:28.076Z,10.30
2019-03-23T22:04:58.441Z,10.30
2019-03-23T22:07:28.824Z,10.30
2019-03-23T22:09:59.155Z,10.20
2019-03-23T22:12:29.443Z,10.20
2019-03-23T22:14:59.917Z,10.10
2019-03-23T22:17:30.197Z,10.10
2019-03-23T22:20:00.555Z,10.10
2019-03-23T22:22:30.841Z,10.10
2019-03-23T22:25:01.206Z,10.00
2019-03-23T22:27:31.516Z,10.00
2019-03-23T22:30:01.775Z,9.90
2019-03-23T22:32:32.055Z,9.90
2019-03-23T22:35:02.398Z,9.80
2019-03-23T22:37:32.671Z,9.80
2019-03-23T22:40:04.252Z,9.80
2019-03-23T22:42:41.188Z,9.70
2019-03-23T22:45:11.719Z,9.70
2019-03-23T22:47:45.871Z,9.60
2019-03-23T22:50:16.621Z,9.60
2019-03-23T22:52:46.925Z,9.50
2019-03-23T22:55:17.309Z,9.50
2019-03-23T22:57:47.573Z,9.50
2019-03-23T23:00:21.246Z,9.40
2019-03-23T23:02:53.046Z,9.40
2019-03-23T23:05:23.408Z,9.40
2019-03-23T23:07:53.690Z,9.40
2019-03-23T23:10:24.232Z,9.40
2019-03-23T23:12:54.529Z,9.30
2019-03-23T23:15:24.820Z,9.40
2019-03-23T23:17:55.036Z,9.40
2019-03-23T23:20:25.394Z,9.40
2019-03-23T23:22:55.601Z,9.30
2019-03-23T23:25:25.990Z,9.30
2019-03-23T23:27:56.275Z,9.40
2019-03-23T23:30:26.606Z,9.40
2019-03-23T23:32:57.994Z,9.40
2019-03-23T23:35:28.440Z,9.40
2019-03-23T23:37:58.654Z,9.40
2019-03-23T23:40:29.636Z,9.40
2019-03-23T23:43:00.024Z,9.40
2019-03-23T23:45:30.316Z,9.40
2019-03-23T23:48:00.682Z,9.40
2019-03-23T23:50:30.896Z,9.40
2019-03-23T23:53:01.260Z,9.40
2019-03-23T23:55:31.535Z,9.40
2019-03-23T23:58:01.885Z,9.30
